sensor_id;sensor_type;location;lat;lon;timestamp;pressure;altitude;pressure_sealevel;temperature;humidity
80137;BME280;69466;55.948;37.484;2023-07-13T00:00:35;98638.31;;;12.11;78.51
80137;BME280;69466;55.948;37.484;2023-07-13T00:03:03;98625.81;;;12.10;78.59
80137;BME280;69466;55.948;37.484;2023-07-13T00:05:30;98633.38;;;12.08;78.94
80137;BME280;69466;55.948;37.484;2023-07-13T00:07:57;98640.19;;;12.10;79.05
80137;BME280;69466;55.948;37.484;2023-07-13T00:10:23;98633.38;;;12.08;79.08
80137;BME280;69466;55.948;37.484;2023-07-13T00:12:49;98627.94;;;12.08;78.95
80137;BME280;69466;55.948;37.484;2023-07-13T00:15:24;98642.63;;;12.07;78.78
80137;BME280;69466;55.948;37.484;2023-07-13T00:17:53;98639.06;;;12.06;79.17
80137;BME280;69466;55.948;37.484;2023-07-13T00:20:21;98627.63;;;12.04;79.42
80137;BME280;69466;55.948;37.484;2023-07-13T00:22:49;98627.81;;;11.97;79.74
80137;BME280;69466;55.948;37.484;2023-07-13T00:25:15;98627.06;;;12.02;79.79
80137;BME280;69466;55.948;37.484;2023-07-13T00:27:43;98635.03;;;12.09;79.45
80137;BME280;69466;55.948;37.484;2023-07-13T00:30:10;98634.97;;;12.04;79.43
80137;BME280;69466;55.948;37.484;2023-07-13T00:32:40;98636.63;;;12.05;79.63
80137;BME280;69466;55.948;37.484;2023-07-13T00:35:06;98630.28;;;11.99;79.84
80137;BME280;69466;55.948;37.484;2023-07-13T00:37:33;98616.88;;;11.92;79.96
80137;BME280;69466;55.948;37.484;2023-07-13T00:40:03;98633.31;;;12.03;79.74
80137;BME280;69466;55.948;37.484;2023-07-13T00:42:30;98622.44;;;12.03;79.93
80137;BME280;69466;55.948;37.484;2023-07-13T00:47:37;98624.91;;;12.04;79.77
80137;BME280;69466;55.948;37.484;2023-07-13T00:50:06;98630.34;;;12.04;80.05
80137;BME280;69466;55.948;37.484;2023-07-13T00:52:33;98622.97;;;11.99;80.18
80137;BME280;69466;55.948;37.484;2023-07-13T00:55:01;98626.81;;;12.04;80.15
80137;BME280;69466;55.948;37.484;2023-07-13T00:57:29;98622.44;;;12.03;80.38
80137;BME280;69466;55.948;37.484;2023-07-13T00:59:58;98617.53;;;11.99;79.82
80137;BME280;69466;55.948;37.484;2023-07-13T01:02:33;98619.78;;;12.08;79.94
80137;BME280;69466;55.948;37.484;2023-07-13T01:05:00;98615.69;;;12.05;80.17
80137;BME280;69466;55.948;37.484;2023-07-13T01:07:30;98608.59;;;12.04;80.25
80137;BME280;69466;55.948;37.484;2023-07-13T01:09:57;98612.69;;;12.07;79.93
80137;BME280;69466;55.948;37.484;2023-07-13T01:12:23;98608.66;;;12.09;80.00
80137;BME280;69466;55.948;37.484;2023-07-13T01:14:57;98616.56;;;12.11;79.57
80137;BME280;69466;55.948;37.484;2023-07-13T01:17:23;98613.34;;;12.14;79.66
80137;BME280;69466;55.948;37.484;2023-07-13T01:19:50;98605.44;;;12.12;79.83
80137;BME280;69466;55.948;37.484;2023-07-13T01:22:17;98599.69;;;12.09;79.78
80137;BME280;69466;55.948;37.484;2023-07-13T01:24:46;98607.91;;;12.14;79.88
80137;BME280;69466;55.948;37.484;2023-07-13T01:27:20;98608.47;;;12.16;79.99
80137;BME280;69466;55.948;37.484;2023-07-13T01:29:47;98596.22;;;12.13;80.01
80137;BME280;69466;55.948;37.484;2023-07-13T01:32:17;98606.03;;;12.14;79.92
80137;BME280;69466;55.948;37.484;2023-07-13T01:34:48;98606.25;;;12.13;79.81
80137;BME280;69466;55.948;37.484;2023-07-13T01:37:16;98604.09;;;12.15;79.69
80137;BME280;69466;55.948;37.484;2023-07-13T01:39:43;98599.47;;;12.15;80.01
80137;BME280;69466;55.948;37.484;2023-07-13T01:42:09;98593.72;;;12.12;79.88
80137;BME280;69466;55.948;37.484;2023-07-13T01:44:34;98598.66;;;12.15;79.80
80137;BME280;69466;55.948;37.484;2023-07-13T01:47:01;98601.44;;;12.20;79.92
80137;BME280;69466;55.948;37.484;2023-07-13T01:49:27;98599.81;;;12.19;80.01
80137;BME280;69466;55.948;37.484;2023-07-13T01:51:52;98600.13;;;12.22;80.09
80137;BME280;69466;55.948;37.484;2023-07-13T01:54:18;98596.63;;;12.27;79.68
80137;BME280;69466;55.948;37.484;2023-07-13T01:56:44;98587.66;;;12.26;79.73
80137;BME280;69466;55.948;37.484;2023-07-13T01:59:10;98592.84;;;12.28;79.72
80137;BME280;69466;55.948;37.484;2023-07-13T02:01:36;98580.63;;;12.30;79.56
80137;BME280;69466;55.948;37.484;2023-07-13T02:04:02;98581.13;;;12.27;79.71
80137;BME280;69466;55.948;37.484;2023-07-13T02:06:32;98583.41;;;12.35;79.64
80137;BME280;69466;55.948;37.484;2023-07-13T02:08:58;98571.31;;;12.26;79.67
80137;BME280;69466;55.948;37.484;2023-07-13T02:11:24;98583.41;;;12.35;79.40
80137;BME280;69466;55.948;37.484;2023-07-13T02:13:51;98577.38;;;12.33;79.84
80137;BME280;69466;55.948;37.484;2023-07-13T02:16:17;98557.97;;;12.25;79.61
80137;BME280;69466;55.948;37.484;2023-07-13T02:18:44;98576.59;;;12.38;79.38
80137;BME280;69466;55.948;37.484;2023-07-13T02:21:09;98568.72;;;12.36;79.26
80137;BME280;69466;55.948;37.484;2023-07-13T02:23:35;98562.19;;;12.37;79.58
80137;BME280;69466;55.948;37.484;2023-07-13T02:26:04;98567.63;;;12.37;79.64
80137;BME280;69466;55.948;37.484;2023-07-13T02:28:30;98558.66;;;12.37;79.45
80137;BME280;69466;55.948;37.484;2023-07-13T02:31:04;98561.94;;;12.39;79.76
80137;BME280;69466;55.948;37.484;2023-07-13T02:33:30;98573.41;;;12.41;79.52
80137;BME280;69466;55.948;37.484;2023-07-13T02:35:56;98564.13;;;12.42;79.50
80137;BME280;69466;55.948;37.484;2023-07-13T02:38:22;98554.59;;;12.39;79.58
80137;BME280;69466;55.948;37.484;2023-07-13T02:40:47;98563.63;;;12.45;79.39
80137;BME280;69466;55.948;37.484;2023-07-13T02:43:13;98569.13;;;12.50;79.13
80137;BME280;69466;55.948;37.484;2023-07-13T02:45:43;98564.75;;;12.49;79.28
80137;BME280;69466;55.948;37.484;2023-07-13T02:48:09;98564.19;;;12.47;79.41
80137;BME280;69466;55.948;37.484;2023-07-13T02:50:35;98566.34;;;12.45;79.31
80137;BME280;69466;55.948;37.484;2023-07-13T02:53:02;98570.16;;;12.44;79.47
80137;BME280;69466;55.948;37.484;2023-07-13T02:55:28;98561.75;;;12.46;79.43
80137;BME280;69466;55.948;37.484;2023-07-13T02:57:54;98558.69;;;12.42;79.42
80137;BME280;69466;55.948;37.484;2023-07-13T03:00:20;98555.47;;;12.45;79.79
80137;BME280;69466;55.948;37.484;2023-07-13T03:02:46;98551.88;;;12.39;79.51
80137;BME280;69466;55.948;37.484;2023-07-13T03:05:12;98552.75;;;12.45;79.39
80137;BME280;69466;55.948;37.484;2023-07-13T03:07:39;98561.47;;;12.47;79.58
80137;BME280;69466;55.948;37.484;2023-07-13T03:10:06;98565.31;;;12.51;79.47
80137;BME280;69466;55.948;37.484;2023-07-13T03:12:40;98552.75;;;12.45;79.50
80137;BME280;69466;55.948;37.484;2023-07-13T03:15:12;98561.50;;;12.52;79.48
80137;BME280;69466;55.948;37.484;2023-07-13T03:17:41;98565.13;;;12.58;79.37
80137;BME280;69466;55.948;37.484;2023-07-13T03:20:08;98560.78;;;12.62;79.12
80137;BME280;69466;55.948;37.484;2023-07-13T03:22:35;98559.72;;;12.63;79.15
80137;BME280;69466;55.948;37.484;2023-07-13T03:25:02;98562.75;;;12.66;79.03
80137;BME280;69466;55.948;37.484;2023-07-13T03:27:30;98564.38;;;12.67;78.71
80137;BME280;69466;55.948;37.484;2023-07-13T03:29:56;98561.72;;;12.72;78.62
80137;BME280;69466;55.948;37.484;2023-07-13T03:32:22;98566.91;;;12.79;78.69
80137;BME280;69466;55.948;37.484;2023-07-13T03:34:48;98554.97;;;12.80;78.71
80137;BME280;69466;55.948;37.484;2023-07-13T03:37:15;98566.91;;;12.79;78.59
80137;BME280;69466;55.948;37.484;2023-07-13T03:39:41;98567.78;;;12.84;78.30
80137;BME280;69466;55.948;37.484;2023-07-13T03:42:08;98563.50;;;12.94;78.01
80137;BME280;69466;55.948;37.484;2023-07-13T03:44:35;98566.81;;;12.96;78.06
80137;BME280;69466;55.948;37.484;2023-07-13T03:47:03;98550.13;;;12.87;78.13
80137;BME280;69466;55.948;37.484;2023-07-13T03:49:32;98567.09;;;12.99;77.85
80137;BME280;69466;55.948;37.484;2023-07-13T03:51:57;98562.22;;;13.01;77.89
80137;BME280;69466;55.948;37.484;2023-07-13T03:54:24;98560.34;;;13.07;77.75
80137;BME280;69466;55.948;37.484;2023-07-13T03:56:50;98567.44;;;13.08;77.67
80137;BME280;69466;55.948;37.484;2023-07-13T03:59:17;98572.63;;;13.09;77.75
80137;BME280;69466;55.948;37.484;2023-07-13T04:01:45;98567.44;;;13.08;77.47
80137;BME280;69466;55.948;37.484;2023-07-13T04:04:13;98565.50;;;13.03;77.60
80137;BME280;69466;55.948;37.484;2023-07-13T04:06:38;98567.69;;;13.06;77.62
80137;BME280;69466;55.948;37.484;2023-07-13T04:09:05;98569.66;;;13.11;77.80
80137;BME280;69466;55.948;37.484;2023-07-13T04:11:32;98572.97;;;13.13;77.79
80137;BME280;69466;55.948;37.484;2023-07-13T04:13:59;98586.63;;;13.18;77.38
80137;BME280;69466;55.948;37.484;2023-07-13T04:16:25;98582.00;;;13.18;77.25
80137;BME280;69466;55.948;37.484;2023-07-13T04:18:51;98584.22;;;13.26;77.25
80137;BME280;69466;55.948;37.484;2023-07-13T04:21:20;98587.19;;;13.25;77.36
80137;BME280;69466;55.948;37.484;2023-07-13T04:23:46;98577.94;;;13.26;77.27
80137;BME280;69466;55.948;37.484;2023-07-13T04:26:12;98567.00;;;13.21;77.27
80137;BME280;69466;55.948;37.484;2023-07-13T04:28:38;98593.84;;;13.39;76.66
80137;BME280;69466;55.948;37.484;2023-07-13T04:31:04;98591.94;;;13.40;76.66
80137;BME280;69466;55.948;37.484;2023-07-13T04:33:30;98591.44;;;13.48;76.64
80137;BME280;69466;55.948;37.484;2023-07-13T04:35:58;98591.47;;;13.53;76.50
80137;BME280;69466;55.948;37.484;2023-07-13T04:38:28;98577.81;;;13.48;76.35
80137;BME280;69466;55.948;37.484;2023-07-13T04:41:00;98576.81;;;13.64;76.00
80137;BME280;69466;55.948;37.484;2023-07-13T04:43:28;98591.84;;;13.71;76.08
80137;BME280;69466;55.948;37.484;2023-07-13T04:45:54;98575.25;;;13.73;75.76
80137;BME280;69466;55.948;37.484;2023-07-13T04:48:21;98580.72;;;13.78;75.74
80137;BME280;69466;55.948;37.484;2023-07-13T04:50:47;98576.13;;;13.89;75.21
80137;BME280;69466;55.948;37.484;2023-07-13T04:53:13;98578.03;;;13.93;75.39
80137;BME280;69466;55.948;37.484;2023-07-13T04:55:40;98570.44;;;13.95;75.54
80137;BME280;69466;55.948;37.484;2023-07-13T04:58:07;98574.81;;;14.01;75.36
80137;BME280;69466;55.948;37.484;2023-07-13T05:00:34;98578.41;;;14.17;74.33
80137;BME280;69466;55.948;37.484;2023-07-13T05:03:00;98563.16;;;14.16;74.16
80137;BME280;69466;55.948;37.484;2023-07-13T05:05:27;98576.28;;;14.29;74.04
80137;BME280;69466;55.948;37.484;2023-07-13T05:07:53;98587.78;;;14.36;73.76
80137;BME280;69466;55.948;37.484;2023-07-13T05:10:19;98587.22;;;14.39;73.71
80137;BME280;69466;55.948;37.484;2023-07-13T05:12:46;98581.78;;;14.39;73.87
80137;BME280;69466;55.948;37.484;2023-07-13T05:15:12;98578.56;;;14.52;73.21
80137;BME280;69466;55.948;37.484;2023-07-13T05:17:38;98590.00;;;14.54;73.38
80137;BME280;69466;55.948;37.484;2023-07-13T05:20:08;98593.28;;;14.51;73.64
80137;BME280;69466;55.948;37.484;2023-07-13T05:22:34;98574.97;;;14.42;73.61
80137;BME280;69466;55.948;37.484;2023-07-13T05:25:06;98582.63;;;14.50;73.50
80137;BME280;69466;55.948;37.484;2023-07-13T05:27:33;98590.81;;;14.50;73.46
80137;BME280;69466;55.948;37.484;2023-07-13T05:29:59;98581.56;;;14.56;73.82
80137;BME280;69466;55.948;37.484;2023-07-13T05:32:24;98570.88;;;14.44;73.69
80137;BME280;69466;55.948;37.484;2023-07-13T05:34:50;98570.63;;;14.56;73.12
80137;BME280;69466;55.948;37.484;2023-07-13T05:37:16;98573.06;;;14.57;72.81
80137;BME280;69466;55.948;37.484;2023-07-13T05:39:42;98567.63;;;14.62;72.46
80137;BME280;69466;55.948;37.484;2023-07-13T05:42:08;98566.28;;;14.70;71.85
80137;BME280;69466;55.948;37.484;2023-07-13T05:44:34;98565.47;;;14.75;71.68
80137;BME280;69466;55.948;37.484;2023-07-13T05:47:00;98564.38;;;14.91;71.64
80137;BME280;69466;55.948;37.484;2023-07-13T05:49:26;98554.28;;;14.96;71.06
80137;BME280;69466;55.948;37.484;2023-07-13T05:51:52;98552.63;;;15.16;71.39
80137;BME280;69466;55.948;37.484;2023-07-13T05:54:18;98549.31;;;15.29;70.52
80137;BME280;69466;55.948;37.484;2023-07-13T05:56:44;98555.31;;;15.36;70.33
80137;BME280;69466;55.948;37.484;2023-07-13T05:59:10;98538.38;;;15.39;69.77
80137;BME280;69466;55.948;37.484;2023-07-13T06:01:36;98538.06;;;15.61;69.21
80137;BME280;69466;55.948;37.484;2023-07-13T06:04:01;98545.19;;;15.62;68.35
80137;BME280;69466;55.948;37.484;2023-07-13T06:06:27;98538.53;;;15.83;67.68
80137;BME280;69466;55.948;37.484;2023-07-13T06:08:53;98549.69;;;15.96;66.67
80137;BME280;69466;55.948;37.484;2023-07-13T06:11:22;98548.28;;;16.04;66.49
80137;BME280;69466;55.948;37.484;2023-07-13T06:13:49;98536.81;;;16.02;65.79
80137;BME280;69466;55.948;37.484;2023-07-13T06:16:16;98550.38;;;16.22;65.07
80137;BME280;69466;55.948;37.484;2023-07-13T06:18:42;98544.88;;;16.27;64.73
80137;BME280;69466;55.948;37.484;2023-07-13T06:21:13;98542.63;;;16.39;64.47
80137;BME280;69466;55.948;37.484;2023-07-13T06:23:39;98550.50;;;16.51;64.04
80137;BME280;69466;55.948;37.484;2023-07-13T06:26:06;98542.50;;;16.55;63.67
80137;BME280;69466;55.948;37.484;2023-07-13T06:28:34;98539.50;;;16.56;63.32
80137;BME280;69466;55.948;37.484;2023-07-13T06:31:00;98525.81;;;16.61;62.94
80137;BME280;69466;55.948;37.484;2023-07-13T06:33:27;98539.97;;;16.68;63.47
80137;BME280;69466;55.948;37.484;2023-07-13T06:35:53;98529.53;;;16.75;63.25
80137;BME280;69466;55.948;37.484;2023-07-13T06:38:21;98520.34;;;16.61;63.48
80137;BME280;69466;55.948;37.484;2023-07-13T06:40:47;98526.66;;;16.52;63.11
80137;BME280;69466;55.948;37.484;2023-07-13T06:43:13;98537.56;;;16.67;62.96
80137;BME280;69466;55.948;37.484;2023-07-13T06:45:45;98533.41;;;16.69;63.34
80137;BME280;69466;55.948;37.484;2023-07-13T06:48:17;98533.19;;;16.56;63.02
80137;BME280;69466;55.948;37.484;2023-07-13T06:50:44;98526.19;;;16.45;63.26
80137;BME280;69466;55.948;37.484;2023-07-13T06:53:11;98522.66;;;16.39;63.46
80137;BME280;69466;55.948;37.484;2023-07-13T06:55:37;98531.44;;;16.36;63.33
80137;BME280;69466;55.948;37.484;2023-07-13T06:58:03;98532.53;;;16.35;63.85
80137;BME280;69466;55.948;37.484;2023-07-13T07:00:30;98520.78;;;16.29;63.71
80137;BME280;69466;55.948;37.484;2023-07-13T07:02:56;98527.78;;;16.46;62.97
80137;BME280;69466;55.948;37.484;2023-07-13T07:05:22;98519.06;;;16.44;62.54
80137;BME280;69466;55.948;37.484;2023-07-13T07:07:53;98534.84;;;16.57;62.03
80137;BME280;69466;55.948;37.484;2023-07-13T07:10:20;98520.59;;;16.55;61.78
80137;BME280;69466;55.948;37.484;2023-07-13T07:12:46;98525.00;;;16.61;61.77
80137;BME280;69466;55.948;37.484;2023-07-13T07:15:12;98532.09;;;16.62;61.94
80137;BME280;69466;55.948;37.484;2023-07-13T07:17:38;98527.16;;;16.64;62.38
80137;BME280;69466;55.948;37.484;2023-07-13T07:20:05;98548.00;;;16.60;61.92
80137;BME280;69466;55.948;37.484;2023-07-13T07:22:32;98533.84;;;16.42;62.29
80137;BME280;69466;55.948;37.484;2023-07-13T07:24:58;98541.22;;;16.47;62.77
80137;BME280;69466;55.948;37.484;2023-07-13T07:27:24;98546.16;;;16.45;63.21
80137;BME280;69466;55.948;37.484;2023-07-13T07:29:51;98551.66;;;16.45;62.26
80137;BME280;69466;55.948;37.484;2023-07-13T07:32:16;98545.63;;;16.43;63.05
80137;BME280;69466;55.948;37.484;2023-07-13T07:34:42;98548.97;;;16.35;63.04
80137;BME280;69466;55.948;37.484;2023-07-13T07:37:11;98545.69;;;16.33;63.56
80137;BME280;69466;55.948;37.484;2023-07-13T07:39:37;98551.19;;;16.23;64.05
80137;BME280;69466;55.948;37.484;2023-07-13T07:42:04;98537.28;;;16.14;64.13
80137;BME280;69466;55.948;37.484;2023-07-13T07:44:31;98548.50;;;16.18;64.55
80137;BME280;69466;55.948;37.484;2023-07-13T07:46:58;98549.34;;;16.13;64.48
80137;BME280;69466;55.948;37.484;2023-07-13T07:49:23;98550.97;;;16.14;64.89
80137;BME280;69466;55.948;37.484;2023-07-13T07:51:49;98552.41;;;16.07;65.06
80137;BME280;69466;55.948;37.484;2023-07-13T07:54:16;98546.72;;;15.93;66.08
80137;BME280;69466;55.948;37.484;2023-07-13T07:56:42;98546.16;;;15.91;66.21
80137;BME280;69466;55.948;37.484;2023-07-13T07:59:08;98548.63;;;15.87;65.95
80137;BME280;69466;55.948;37.484;2023-07-13T08:01:33;98532.56;;;15.76;66.22
80137;BME280;69466;55.948;37.484;2023-07-13T08:03:59;98548.13;;;15.85;66.72
80137;BME280;69466;55.948;37.484;2023-07-13T08:06:25;98561.75;;;15.90;66.40
80137;BME280;69466;55.948;37.484;2023-07-13T08:08:51;98550.25;;;15.93;66.70
80137;BME280;69466;55.948;37.484;2023-07-13T08:11:17;98556.53;;;15.99;66.87
80137;BME280;69466;55.948;37.484;2023-07-13T08:13:43;98555.41;;;16.05;66.72
80137;BME280;69466;55.948;37.484;2023-07-13T08:16:09;98549.97;;;15.95;65.92
80137;BME280;69466;55.948;37.484;2023-07-13T08:18:36;98554.59;;;16.00;66.84
80137;BME280;69466;55.948;37.484;2023-07-13T08:21:06;98555.38;;;16.10;66.24
80137;BME280;69466;55.948;37.484;2023-07-13T08:23:33;98548.81;;;16.11;66.14
80137;BME280;69466;55.948;37.484;2023-07-13T08:25:58;98550.75;;;16.06;66.05
80137;BME280;69466;55.948;37.484;2023-07-13T08:28:28;98548.34;;;15.99;66.77
80137;BME280;69466;55.948;37.484;2023-07-13T08:30:54;98550.78;;;15.95;66.86
80137;BME280;69466;55.948;37.484;2023-07-13T08:33:21;98560.06;;;16.00;66.50
80137;BME280;69466;55.948;37.484;2023-07-13T08:35:50;98555.16;;;15.96;66.90
80137;BME280;69466;55.948;37.484;2023-07-13T08:38:17;98554.06;;;15.98;67.70
80137;BME280;69466;55.948;37.484;2023-07-13T08:40:45;98545.63;;;15.94;67.29
80137;BME280;69466;55.948;37.484;2023-07-13T08:43:23;98559.78;;;16.06;67.58
80137;BME280;69466;55.948;37.484;2023-07-13T08:46:05;98567.16;;;16.06;67.81
80137;BME280;69466;55.948;37.484;2023-07-13T08:48:57;98556.50;;;16.04;67.08
80137;BME280;69466;55.948;37.484;2023-07-13T08:54:36;98575.84;;;16.18;67.44
80137;BME280;69466;55.948;37.484;2023-07-13T08:57:12;98570.97;;;16.10;67.38
80137;BME280;69466;55.948;37.484;2023-07-13T08:59:38;98582.50;;;16.07;67.54
80137;BME280;69466;55.948;37.484;2023-07-13T09:05:10;98591.22;;;16.14;66.98
80137;BME280;69466;55.948;37.484;2023-07-13T09:10:50;98593.16;;;16.08;67.61
80137;BME280;69466;55.948;37.484;2023-07-13T09:15:59;98583.91;;;15.99;68.07
80137;BME280;69466;55.948;37.484;2023-07-13T09:18:34;98569.69;;;15.87;69.00
80137;BME280;69466;55.948;37.484;2023-07-13T09:21:23;98574.41;;;15.76;67.62
80137;BME280;69466;55.948;37.484;2023-07-13T09:23:53;98589.94;;;15.86;67.14
80137;BME280;69466;55.948;37.484;2023-07-13T09:26:24;98588.56;;;15.93;67.07
80137;BME280;69466;55.948;37.484;2023-07-13T09:29:00;98584.75;;;15.89;66.71
80137;BME280;69466;55.948;37.484;2023-07-13T09:31:34;98585.28;;;15.91;66.57
80137;BME280;69466;55.948;37.484;2023-07-13T09:34:06;98582.03;;;15.84;66.70
80137;BME280;69466;55.948;37.484;2023-07-13T09:36:35;98579.59;;;15.73;66.77
80137;BME280;69466;55.948;37.484;2023-07-13T09:44:35;98573.34;;;15.62;68.67
80137;BME280;69466;55.948;37.484;2023-07-13T09:47:03;98568.72;;;15.63;69.38
80137;BME280;69466;55.948;37.484;2023-07-13T09:49:33;98567.88;;;15.62;70.82
80137;BME280;69466;55.948;37.484;2023-07-13T09:52:03;98569.22;;;15.49;71.13
80137;BME280;69466;55.948;37.484;2023-07-13T09:54:34;98564.59;;;15.45;71.68
80137;BME280;69466;55.948;37.484;2023-07-13T09:57:01;98569.78;;;15.46;72.12
80137;BME280;69466;55.948;37.484;2023-07-13T09:59:31;98571.19;;;15.44;72.75
80137;BME280;69466;55.948;37.484;2023-07-13T10:01:58;98573.63;;;15.50;73.14
80137;BME280;69466;55.948;37.484;2023-07-13T10:04:33;98575.81;;;15.48;73.03
80137;BME280;69466;55.948;37.484;2023-07-13T10:07:07;98567.31;;;15.45;73.37
80137;BME280;69466;55.948;37.484;2023-07-13T10:09:34;98574.19;;;15.42;73.23
80137;BME280;69466;55.948;37.484;2023-07-13T10:12:00;98570.88;;;15.40;73.33
80137;BME280;69466;55.948;37.484;2023-07-13T10:14:25;98574.19;;;15.32;73.18
80137;BME280;69466;55.948;37.484;2023-07-13T10:16:59;98572.00;;;15.34;73.31
80137;BME280;69466;55.948;37.484;2023-07-13T10:19:31;98569.28;;;15.29;73.53
80137;BME280;69466;55.948;37.484;2023-07-13T10:22:12;98566.81;;;15.18;74.05
80137;BME280;69466;55.948;37.484;2023-07-13T10:24:40;98580.47;;;15.23;74.15
80137;BME280;69466;55.948;37.484;2023-07-13T10:27:18;98566.81;;;15.23;74.62
80137;BME280;69466;55.948;37.484;2023-07-13T10:32:13;98570.38;;;15.08;74.69
80137;BME280;69466;55.948;37.484;2023-07-13T10:34:40;98581.34;;;15.03;75.24
80137;BME280;69466;55.948;37.484;2023-07-13T10:37:18;98570.41;;;14.98;75.60
80137;BME280;69466;55.948;37.484;2023-07-13T10:39:47;98575.03;;;14.92;75.91
80137;BME280;69466;55.948;37.484;2023-07-13T10:42:21;98570.66;;;14.81;75.75
80137;BME280;69466;55.948;37.484;2023-07-13T10:44:49;98576.09;;;14.76;75.90
80137;BME280;69466;55.948;37.484;2023-07-13T10:47:16;98564.06;;;14.62;76.06
80137;BME280;69466;55.948;37.484;2023-07-13T10:49:45;98591.69;;;14.66;76.03
80137;BME280;69466;55.948;37.484;2023-07-13T10:58:22;98588.91;;;14.45;77.84
80137;BME280;69466;55.948;37.484;2023-07-13T11:01:07;98585.06;;;14.41;77.05
80137;BME280;69466;55.948;37.484;2023-07-13T11:03:36;98585.31;;;14.40;76.56
80137;BME280;69466;55.948;37.484;2023-07-13T11:11:36;98578.72;;;14.26;77.21
80137;BME280;69466;55.948;37.484;2023-07-13T11:14:29;98594.28;;;14.35;77.02
80137;BME280;69466;55.948;37.484;2023-07-13T11:16:55;98598.69;;;14.36;76.93
80137;BME280;69466;55.948;37.484;2023-07-13T11:24:50;98607.66;;;14.32;77.50
80137;BME280;69466;55.948;37.484;2023-07-13T11:27:36;98612.28;;;14.26;77.75
80137;BME280;69466;55.948;37.484;2023-07-13T11:30:30;98613.94;;;14.32;77.71
80137;BME280;69466;55.948;37.484;2023-07-13T11:35:46;98612.84;;;14.28;78.29
80137;BME280;69466;55.948;37.484;2023-07-13T11:38:38;98619.41;;;14.32;78.77
80137;BME280;69466;55.948;37.484;2023-07-13T11:41:23;98622.13;;;14.32;78.12
80137;BME280;69466;55.948;37.484;2023-07-13T11:43:55;98619.94;;;14.24;78.46
80137;BME280;69466;55.948;37.484;2023-07-13T11:46:24;98617.47;;;14.28;78.44
80137;BME280;69466;55.948;37.484;2023-07-13T11:48:51;98609.53;;;14.26;78.87
80137;BME280;69466;55.948;37.484;2023-07-13T11:51:28;98608.22;;;14.29;78.81
80137;BME280;69466;55.948;37.484;2023-07-13T11:54:00;98618.38;;;14.38;79.36
80137;BME280;69466;55.948;37.484;2023-07-13T11:56:27;98621.34;;;14.37;79.31
80137;BME280;69466;55.948;37.484;2023-07-13T11:58:55;98619.97;;;14.34;79.46
80137;BME280;69466;55.948;37.484;2023-07-13T12:01:25;98626.81;;;14.37;79.47
80137;BME280;69466;55.948;37.484;2023-07-13T12:03:52;98624.66;;;14.39;79.37
80137;BME280;69466;55.948;37.484;2023-07-13T12:06:37;98603.91;;;14.38;80.00
80137;BME280;69466;55.948;37.484;2023-07-13T12:09:11;98613.72;;;14.39;80.37
80137;BME280;69466;55.948;37.484;2023-07-13T12:11:45;98616.75;;;14.47;80.15
80137;BME280;69466;55.948;37.484;2023-07-13T12:14:15;98615.09;;;14.41;80.19
80137;BME280;69466;55.948;37.484;2023-07-13T12:16:41;98606.09;;;14.41;80.32
80137;BME280;69466;55.948;37.484;2023-07-13T12:19:26;98610.19;;;14.43;79.89
80137;BME280;69466;55.948;37.484;2023-07-13T12:21:57;98612.09;;;14.43;80.36
80137;BME280;69466;55.948;37.484;2023-07-13T12:24:24;98605.81;;;14.42;79.82
80137;BME280;69466;55.948;37.484;2023-07-13T12:27:19;98611.81;;;14.44;80.10
80137;BME280;69466;55.948;37.484;2023-07-13T12:29:51;98607.47;;;14.43;80.65
80137;BME280;69466;55.948;37.484;2023-07-13T12:32:19;98606.66;;;14.48;80.89
80137;BME280;69466;55.948;37.484;2023-07-13T12:34:53;98608.56;;;14.47;81.21
80137;BME280;69466;55.948;37.484;2023-07-13T12:37:20;98602.28;;;14.47;81.21
80137;BME280;69466;55.948;37.484;2023-07-13T12:39:47;98593.81;;;14.43;81.57
80137;BME280;69466;55.948;37.484;2023-07-13T12:42:18;98605.53;;;14.44;81.58
80137;BME280;69466;55.948;37.484;2023-07-13T12:44:47;98594.91;;;14.42;81.87
80137;BME280;69466;55.948;37.484;2023-07-13T12:47:14;98598.47;;;14.53;81.78
80137;BME280;69466;55.948;37.484;2023-07-13T12:49:49;98594.91;;;14.47;81.71
80137;BME280;69466;55.948;37.484;2023-07-13T12:52:20;98590.53;;;14.46;81.68
80137;BME280;69466;55.948;37.484;2023-07-13T12:54:58;98602.56;;;14.50;81.79
80137;BME280;69466;55.948;37.484;2023-07-13T12:57:25;98597.09;;;14.50;81.95
80137;BME280;69466;55.948;37.484;2023-07-13T12:59:55;98581.53;;;14.41;81.71
80137;BME280;69466;55.948;37.484;2023-07-13T13:02:33;98590.56;;;14.56;81.48
80137;BME280;69466;55.948;37.484;2023-07-13T13:05:01;98587.53;;;14.53;81.31
80137;BME280;69466;55.948;37.484;2023-07-13T13:07:30;98591.38;;;14.52;81.27
80137;BME280;69466;55.948;37.484;2023-07-13T13:09:55;98597.38;;;14.54;81.23
80137;BME280;69466;55.948;37.484;2023-07-13T13:12:22;98599.00;;;14.50;81.32
80137;BME280;69466;55.948;37.484;2023-07-13T13:14:48;98588.91;;;14.50;81.57
80137;BME280;69466;55.948;37.484;2023-07-13T13:17:23;98596.03;;;14.61;81.19
80137;BME280;69466;55.948;37.484;2023-07-13T13:19:51;98598.22;;;14.59;81.12
80137;BME280;69466;55.948;37.484;2023-07-13T13:22:20;98599.31;;;14.63;80.91
80137;BME280;69466;55.948;37.484;2023-07-13T13:24:47;98587.84;;;14.61;81.38
80137;BME280;69466;55.948;37.484;2023-07-13T13:27:22;98592.50;;;14.61;80.56
80137;BME280;69466;55.948;37.484;2023-07-13T13:29:51;98590.28;;;14.63;80.84
80137;BME280;69466;55.948;37.484;2023-07-13T13:32:18;98599.03;;;14.55;80.97
80137;BME280;69466;55.948;37.484;2023-07-13T13:34:44;98585.09;;;14.51;81.65
80137;BME280;69466;55.948;37.484;2023-07-13T13:37:22;98593.00;;;14.53;81.49
80137;BME280;69466;55.948;37.484;2023-07-13T13:39:50;98582.63;;;14.45;81.35